Terminal Aerodrome Forecast
Issued by NWS

Home | Current Version | Previous Version | Text Only | Print | Product List | Glossary On
Versions: 1 2 3 4 5 6 7 8 9 10 11 12 13 14 15 16 17 18 19 20 21 22 23 24 25 26 27 28 29 30 31 32 33 34 35 36
000
FTUS45 KBOU 061142
TAFBJC
TAF
KBJC 061142Z 0612/0712 01006KT P6SM VCSH SCT008 BKN014 OVC020
      TEMPO 0612/0614 -SHRA BKN008
     FM061400 03007KT P6SM SCT014 BKN020 OVC030
      TEMPO 0614/0616 -RA BKN014
     FM061600 04008KT P6SM SCT012 BKN020 OVC030
     FM061900 05007KT P6SM VCTS BKN030CB BKN045
      TEMPO 0621/0701 -SHRA BKN025
     FM070400 03006KT P6SM VCSH BKN035 BKN050=

USA.gov is the U.S. government's official web portal to all federal, state and local government web resources and services.